Terminal Aerodrome Forecast
Issued by NWS

Home | Current Version | Previous Version | Text Only | Print | Product List | Glossary On
Versions: 1 2 3 4 5 6 7 8 9 10 11 12 13 14 15 16 17 18 19 20 21 22 23 24 25
000
FTUS42 KMFL 060532
TAFMIA
TAF
KMIA 060532Z 0606/0706 16008KT P6SM SCT020 BKN200
      TEMPO 0606/0610 BKN020
     FM061400 19012G22KT P6SM VCSH SCT025 BKN050 BKN200
     FM062200 22010KT P6SM VCSH SCT020 BKN035 BKN080
     FM070200 VRB04KT P6SM VCSH SCT020 BKN050 BKN250=

USA.gov is the U.S. government's official web portal to all federal, state and local government web resources and services.